sensor_id;sensor_type;location;lat;lon;timestamp;pressure;altitude;pressure_sealevel;temperature;humidity
65546;BME280;52177;55.968;37.498;2023-12-07T00:00:01;101619.16;;;-9.83;75.12
65546;BME280;52177;55.968;37.498;2023-12-07T00:00:32;101611.41;;;-9.83;75.16
65546;BME280;52177;55.968;37.498;2023-12-07T00:01:02;101614.84;;;-9.82;75.09
65546;BME280;52177;55.968;37.498;2023-12-07T00:01:33;101618.28;;;-9.82;75.30
65546;BME280;52177;55.968;37.498;2023-12-07T00:02:04;101601.06;;;-9.81;75.04
65546;BME280;52177;55.968;37.498;2023-12-07T00:02:35;101617.44;;;-9.81;74.97
65546;BME280;52177;55.968;37.498;2023-12-07T00:03:05;101614.88;;;-9.81;75.06
65546;BME280;52177;55.968;37.498;2023-12-07T00:03:39;101617.41;;;-9.79;74.83
65546;BME280;52177;55.968;37.498;2023-12-07T00:04:09;101614.84;;;-9.78;75.06
65546;BME280;52177;55.968;37.498;2023-12-07T00:04:39;101613.97;;;-9.77;75.08
65546;BME280;52177;55.968;37.498;2023-12-07T00:05:10;101613.97;;;-9.77;74.92
65546;BME280;52177;55.968;37.498;2023-12-07T00:05:40;101614.84;;;-9.78;74.84
65546;BME280;52177;55.968;37.498;2023-12-07T00:06:11;101617.44;;;-9.78;74.96
65546;BME280;52177;55.968;37.498;2023-12-07T00:06:41;101619.16;;;-9.78;74.93
65546;BME280;52177;55.968;37.498;2023-12-07T00:07:12;101617.41;;;-9.79;74.96
65546;BME280;52177;55.968;37.498;2023-12-07T00:07:42;101619.16;;;-9.78;74.98
65546;BME280;52177;55.968;37.498;2023-12-07T00:08:13;101618.28;;;-9.79;75.02
65546;BME280;52177;55.968;37.498;2023-12-07T00:08:43;101621.75;;;-9.78;74.97
65546;BME280;52177;55.968;37.498;2023-12-07T00:09:14;101622.59;;;-9.78;74.97
65546;BME280;52177;55.968;37.498;2023-12-07T00:09:44;101620.03;;;-9.76;75.10
65546;BME280;52177;55.968;37.498;2023-12-07T00:10:15;101623.47;;;-9.75;75.10
65546;BME280;52177;55.968;37.498;2023-12-07T00:10:45;101614.84;;;-9.74;75.26
65546;BME280;52177;55.968;37.498;2023-12-07T00:11:15;101613.13;;;-9.72;75.29
65546;BME280;52177;55.968;37.498;2023-12-07T00:11:46;101624.28;;;-9.72;75.29
65546;BME280;52177;55.968;37.498;2023-12-07T00:12:16;101624.28;;;-9.72;75.16
65546;BME280;52177;55.968;37.498;2023-12-07T00:12:47;101619.16;;;-9.73;75.21
65546;BME280;52177;55.968;37.498;2023-12-07T00:13:17;101620.84;;;-9.74;75.11
65546;BME280;52177;55.968;37.498;2023-12-07T00:13:48;101617.44;;;-9.76;74.95
65546;BME280;52177;55.968;37.498;2023-12-07T00:14:18;101620.03;;;-9.76;74.98
65546;BME280;52177;55.968;37.498;2023-12-07T00:14:49;101622.59;;;-9.76;75.20
65546;BME280;52177;55.968;37.498;2023-12-07T00:15:19;101616.56;;;-9.73;75.14
65546;BME280;52177;55.968;37.498;2023-12-07T00:15:50;101622.59;;;-9.76;74.91
65546;BME280;52177;55.968;37.498;2023-12-07T00:16:20;101621.72;;;-9.77;74.99
65546;BME280;52177;55.968;37.498;2023-12-07T00:16:50;101625.16;;;-9.74;75.07
65546;BME280;52177;55.968;37.498;2023-12-07T00:17:21;101621.75;;;-9.73;74.94
65546;BME280;52177;55.968;37.498;2023-12-07T00:17:51;101621.72;;;-9.75;75.09
65546;BME280;52177;55.968;37.498;2023-12-07T00:18:22;101620.84;;;-9.74;75.16
65546;BME280;52177;55.968;37.498;2023-12-07T00:18:52;101624.31;;;-9.73;75.18
65546;BME280;52177;55.968;37.498;2023-12-07T00:19:23;101630.34;;;-9.71;75.17
65546;BME280;52177;55.968;37.498;2023-12-07T00:19:53;101627.75;;;-9.71;75.27
65546;BME280;52177;55.968;37.498;2023-12-07T00:20:26;101618.28;;;-9.72;75.22
65546;BME280;52177;55.968;37.498;2023-12-07T00:20:56;101624.31;;;-9.70;75.21
65546;BME280;52177;55.968;37.498;2023-12-07T00:21:26;101622.59;;;-9.70;75.40
65546;BME280;52177;55.968;37.498;2023-12-07T00:21:57;101623.44;;;-9.69;75.31
65546;BME280;52177;55.968;37.498;2023-12-07T00:22:27;101627.75;;;-9.68;75.33
65546;BME280;52177;55.968;37.498;2023-12-07T00:22:58;101624.31;;;-9.66;75.36
65546;BME280;52177;55.968;37.498;2023-12-07T00:23:29;101624.31;;;-9.64;75.31
65546;BME280;52177;55.968;37.498;2023-12-07T00:23:59;101615.69;;;-9.65;75.25
65546;BME280;52177;55.968;37.498;2023-12-07T00:24:31;101628.59;;;-9.65;74.93
65546;BME280;52177;55.968;37.498;2023-12-07T00:25:01;101625.16;;;-9.65;75.21
65546;BME280;52177;55.968;37.498;2023-12-07T00:25:32;101624.31;;;-9.64;75.25
65546;BME280;52177;55.968;37.498;2023-12-07T00:26:03;101627.75;;;-9.64;75.23
65546;BME280;52177;55.968;37.498;2023-12-07T00:26:34;101626.03;;;-9.62;75.38
65546;BME280;52177;55.968;37.498;2023-12-07T00:27:04;101623.44;;;-9.60;75.43
65546;BME280;52177;55.968;37.498;2023-12-07T00:27:35;101626.03;;;-9.59;75.34
65546;BME280;52177;55.968;37.498;2023-12-07T00:28:06;101627.72;;;-9.56;75.29
65546;BME280;52177;55.968;37.498;2023-12-07T00:28:36;101628.59;;;-9.56;75.14
65546;BME280;52177;55.968;37.498;2023-12-07T00:29:07;101626.88;;;-9.55;75.25
65546;BME280;52177;55.968;37.498;2023-12-07T00:29:38;101624.31;;;-9.55;75.13
65546;BME280;52177;55.968;37.498;2023-12-07T00:30:08;101625.16;;;-9.54;75.05
65546;BME280;52177;55.968;37.498;2023-12-07T00:30:39;101628.59;;;-9.54;75.01
65546;BME280;52177;55.968;37.498;2023-12-07T00:31:10;101629.47;;;-9.55;74.90
65546;BME280;52177;55.968;37.498;2023-12-07T00:31:40;101626.88;;;-9.55;74.83
65546;BME280;52177;55.968;37.498;2023-12-07T00:32:11;101632.88;;;-9.53;74.75
65546;BME280;52177;55.968;37.498;2023-12-07T00:32:42;101623.41;;;-9.56;74.76
65546;BME280;52177;55.968;37.498;2023-12-07T00:33:13;101627.72;;;-9.56;74.80
65546;BME280;52177;55.968;37.498;2023-12-07T00:33:44;101627.72;;;-9.56;74.97
65546;BME280;52177;55.968;37.498;2023-12-07T00:34:16;101626.88;;;-9.55;75.01
65546;BME280;52177;55.968;37.498;2023-12-07T00:34:47;101626.88;;;-9.55;74.91
65546;BME280;52177;55.968;37.498;2023-12-07T00:35:19;101631.16;;;-9.56;74.88
65546;BME280;52177;55.968;37.498;2023-12-07T00:35:52;101624.31;;;-9.55;74.96
65546;BME280;52177;55.968;37.498;2023-12-07T00:36:22;101625.16;;;-9.54;75.12
65546;BME280;52177;55.968;37.498;2023-12-07T00:36:53;101629.44;;;-9.53;74.88
65546;BME280;52177;55.968;37.498;2023-12-07T00:37:23;101633.78;;;-9.52;74.88
65546;BME280;52177;55.968;37.498;2023-12-07T00:37:55;101632.88;;;-9.53;75.03
65546;BME280;52177;55.968;37.498;2023-12-07T00:38:26;101635.47;;;-9.50;75.17
65546;BME280;52177;55.968;37.498;2023-12-07T00:38:56;101635.47;;;-9.50;75.10
65546;BME280;52177;55.968;37.498;2023-12-07T00:39:27;101626.00;;;-9.49;75.03
65546;BME280;52177;55.968;37.498;2023-12-07T00:39:57;101627.72;;;-9.48;75.00
65546;BME280;52177;55.968;37.498;2023-12-07T00:40:28;101630.31;;;-9.47;74.99
65546;BME280;52177;55.968;37.498;2023-12-07T00:40:58;101626.00;;;-9.46;74.98
65546;BME280;52177;55.968;37.498;2023-12-07T00:41:29;101632.00;;;-9.46;75.01
65546;BME280;52177;55.968;37.498;2023-12-07T00:41:59;101629.44;;;-9.44;75.08
65546;BME280;52177;55.968;37.498;2023-12-07T00:42:30;101638.91;;;-9.43;75.12
65546;BME280;52177;55.968;37.498;2023-12-07T00:43:00;101632.03;;;-9.43;74.97
65546;BME280;52177;55.968;37.498;2023-12-07T00:43:31;101633.75;;;-9.43;74.82
65546;BME280;52177;55.968;37.498;2023-12-07T00:44:01;101625.13;;;-9.44;74.88
65546;BME280;52177;55.968;37.498;2023-12-07T00:44:32;101628.59;;;-9.43;74.69
65546;BME280;52177;55.968;37.498;2023-12-07T00:45:02;101634.59;;;-9.44;74.67
65546;BME280;52177;55.968;37.498;2023-12-07T00:45:33;101629.44;;;-9.46;nan
65546;BME280;52177;55.968;37.498;2023-12-07T00:46:07;101629.44;;;-9.46;74.61
65546;BME280;52177;55.968;37.498;2023-12-07T00:46:37;101632.00;;;-9.46;74.73
65546;BME280;52177;55.968;37.498;2023-12-07T00:47:07;101632.03;;;-9.44;74.70
65546;BME280;52177;55.968;37.498;2023-12-07T00:47:39;101637.19;;;-9.44;74.74
65546;BME280;52177;55.968;37.498;2023-12-07T00:48:09;101632.00;;;-9.46;74.94
65546;BME280;52177;55.968;37.498;2023-12-07T00:48:40;101635.44;;;-9.44;74.84
65546;BME280;52177;55.968;37.498;2023-12-07T00:49:10;101634.59;;;-9.43;74.76
65546;BME280;52177;55.968;37.498;2023-12-07T00:49:41;101633.75;;;-9.43;74.76
65546;BME280;52177;55.968;37.498;2023-12-07T00:50:12;101633.75;;;-9.43;74.80
65546;BME280;52177;55.968;37.498;2023-12-07T00:50:44;101629.44;;;-9.43;74.82
65546;BME280;52177;55.968;37.498;2023-12-07T00:51:14;101636.31;;;-9.42;74.69
65546;BME280;52177;55.968;37.498;2023-12-07T00:51:45;101631.16;;;-9.39;74.87
65546;BME280;52177;55.968;37.498;2023-12-07T00:52:16;101632.03;;;-9.38;74.77
65546;BME280;52177;55.968;37.498;2023-12-07T00:52:46;101629.44;;;-9.38;74.74
65546;BME280;52177;55.968;37.498;2023-12-07T00:53:17;101633.75;;;-9.39;74.48
65546;BME280;52177;55.968;37.498;2023-12-07T00:53:47;101637.19;;;-9.40;74.50
65546;BME280;52177;55.968;37.498;2023-12-07T00:54:17;101634.59;;;-9.38;74.63
65546;BME280;52177;55.968;37.498;2023-12-07T00:54:48;101638.91;;;-9.39;74.67
65546;BME280;52177;55.968;37.498;2023-12-07T00:55:18;101640.63;;;-9.39;74.35
65546;BME280;52177;55.968;37.498;2023-12-07T00:55:49;101642.34;;;-9.38;74.50
65546;BME280;52177;55.968;37.498;2023-12-07T00:56:20;101641.50;;;-9.39;74.35
65546;BME280;52177;55.968;37.498;2023-12-07T00:56:50;101638.03;;;-9.39;74.58
65546;BME280;52177;55.968;37.498;2023-12-07T00:57:21;101638.03;;;-9.39;nan
65546;BME280;52177;55.968;37.498;2023-12-07T00:57:52;101638.03;;;-9.38;74.45
65546;BME280;52177;55.968;37.498;2023-12-07T00:58:22;101641.47;;;-9.37;74.47
65546;BME280;52177;55.968;37.498;2023-12-07T00:58:53;101636.34;;;-9.39;74.29
65546;BME280;52177;55.968;37.498;2023-12-07T00:59:23;101638.03;;;-9.38;74.42
65546;BME280;52177;55.968;37.498;2023-12-07T00:59:54;101638.03;;;-9.38;74.44
65546;BME280;52177;55.968;37.498;2023-12-07T01:00:24;101641.47;;;-9.37;74.35
65546;BME280;52177;55.968;37.498;2023-12-07T01:00:55;101639.75;;;-9.38;74.27
65546;BME280;52177;55.968;37.498;2023-12-07T01:01:25;101632.00;;;-9.40;74.33
65546;BME280;52177;55.968;37.498;2023-12-07T01:01:56;101642.34;;;-9.40;74.35
65546;BME280;52177;55.968;37.498;2023-12-07T01:02:26;101641.50;;;-9.40;74.33
65546;BME280;52177;55.968;37.498;2023-12-07T01:02:57;101639.75;;;-9.40;74.35
65546;BME280;52177;55.968;37.498;2023-12-07T01:03:27;101633.75;;;-9.40;74.31
65546;BME280;52177;55.968;37.498;2023-12-07T01:03:58;101641.50;;;-9.40;74.35
65546;BME280;52177;55.968;37.498;2023-12-07T01:04:29;101630.31;;;-9.41;74.25
65546;BME280;52177;55.968;37.498;2023-12-07T01:05:00;101642.34;;;-9.40;74.28
65546;BME280;52177;55.968;37.498;2023-12-07T01:05:30;101638.91;;;-9.42;74.33
65546;BME280;52177;55.968;37.498;2023-12-07T01:06:01;101643.22;;;-9.41;74.35
65546;BME280;52177;55.968;37.498;2023-12-07T01:06:31;101649.22;;;-9.42;74.24
65546;BME280;52177;55.968;37.498;2023-12-07T01:07:02;101643.22;;;-9.42;74.15
65546;BME280;52177;55.968;37.498;2023-12-07T01:07:32;101645.78;;;-9.44;74.21
65546;BME280;52177;55.968;37.498;2023-12-07T01:08:03;101647.53;;;-9.43;74.18
65546;BME280;52177;55.968;37.498;2023-12-07T01:08:33;101645.78;;;-9.44;74.22
65546;BME280;52177;55.968;37.498;2023-12-07T01:09:04;101638.91;;;-9.43;74.17
65546;BME280;52177;55.968;37.498;2023-12-07T01:09:34;101646.66;;;-9.45;74.07
65546;BME280;52177;55.968;37.498;2023-12-07T01:10:06;101650.09;;;-9.46;74.10
65546;BME280;52177;55.968;37.498;2023-12-07T01:10:37;101649.22;;;-9.46;74.24
65546;BME280;52177;55.968;37.498;2023-12-07T01:11:07;101648.38;;;-9.47;74.14
65546;BME280;52177;55.968;37.498;2023-12-07T01:11:39;101649.25;;;-9.48;74.20
65546;BME280;52177;55.968;37.498;2023-12-07T01:12:12;101646.66;;;-9.49;74.21
65546;BME280;52177;55.968;37.498;2023-12-07T01:12:43;101652.69;;;-9.49;74.17
65546;BME280;52177;55.968;37.498;2023-12-07T01:13:13;101646.66;;;-9.49;74.18
65546;BME280;52177;55.968;37.498;2023-12-07T01:13:43;101650.97;;;-9.51;74.15
65546;BME280;52177;55.968;37.498;2023-12-07T01:14:14;101646.66;;;-9.51;74.22
65546;BME280;52177;55.968;37.498;2023-12-07T01:14:45;101645.78;;;-9.53;74.18
65546;BME280;52177;55.968;37.498;2023-12-07T01:15:15;101644.09;;;-9.54;74.09
65546;BME280;52177;55.968;37.498;2023-12-07T01:15:46;101645.81;;;-9.56;74.09
65546;BME280;52177;55.968;37.498;2023-12-07T01:16:17;101644.09;;;-9.57;74.21
65546;BME280;52177;55.968;37.498;2023-12-07T01:16:47;101651.84;;;-9.57;74.28
65546;BME280;52177;55.968;37.498;2023-12-07T01:17:18;101644.09;;;-9.57;74.31
65546;BME280;52177;55.968;37.498;2023-12-07T01:17:48;101645.78;;;-9.58;74.44
65546;BME280;52177;55.968;37.498;2023-12-07T01:18:18;101644.94;;;-9.58;74.39
65546;BME280;52177;55.968;37.498;2023-12-07T01:18:49;101644.94;;;-9.58;74.33
65546;BME280;52177;55.968;37.498;2023-12-07T01:19:19;101647.53;;;-9.58;74.39
65546;BME280;52177;55.968;37.498;2023-12-07T01:19:50;101644.94;;;-9.58;74.50
65546;BME280;52177;55.968;37.498;2023-12-07T01:20:20;101648.38;;;-9.58;74.41
65546;BME280;52177;55.968;37.498;2023-12-07T01:20:51;101644.09;;;-9.59;74.49
65546;BME280;52177;55.968;37.498;2023-12-07T01:21:21;101638.94;;;-9.59;74.44
65546;BME280;52177;55.968;37.498;2023-12-07T01:21:52;101650.97;;;-9.59;74.53
65546;BME280;52177;55.968;37.498;2023-12-07T01:22:22;101647.53;;;-9.60;74.51
65546;BME280;52177;55.968;37.498;2023-12-07T01:22:53;101652.69;;;-9.61;74.38
65546;BME280;52177;55.968;37.498;2023-12-07T01:23:23;101647.53;;;-9.61;74.56
65546;BME280;52177;55.968;37.498;2023-12-07T01:23:54;101648.38;;;-9.61;74.48
65546;BME280;52177;55.968;37.498;2023-12-07T01:24:24;101643.22;;;-9.61;74.62
65546;BME280;52177;55.968;37.498;2023-12-07T01:24:54;101646.66;;;-9.59;74.61
65546;BME280;52177;55.968;37.498;2023-12-07T01:25:25;101655.28;;;-9.57;74.67
65546;BME280;52177;55.968;37.498;2023-12-07T01:25:55;101641.50;;;-9.57;74.48
65546;BME280;52177;55.968;37.498;2023-12-07T01:26:26;101650.97;;;-9.56;74.63
65546;BME280;52177;55.968;37.498;2023-12-07T01:26:56;101652.69;;;-9.55;74.38
65546;BME280;52177;55.968;37.498;2023-12-07T01:27:27;101649.25;;;-9.54;74.53
65546;BME280;52177;55.968;37.498;2023-12-07T01:27:57;101648.41;;;-9.54;74.40
65546;BME280;52177;55.968;37.498;2023-12-07T01:28:28;101649.25;;;-9.54;74.34
65546;BME280;52177;55.968;37.498;2023-12-07T01:28:58;101646.66;;;-9.54;74.35
65546;BME280;52177;55.968;37.498;2023-12-07T01:29:29;101652.69;;;-9.53;74.36
65546;BME280;52177;55.968;37.498;2023-12-07T01:29:59;101648.41;;;-9.54;74.15
65546;BME280;52177;55.968;37.498;2023-12-07T01:30:30;101657.00;;;-9.52;74.32
65546;BME280;52177;55.968;37.498;2023-12-07T01:31:00;101654.41;;;-9.54;74.24
65546;BME280;52177;55.968;37.498;2023-12-07T01:31:31;101659.59;;;-9.52;74.12
65546;BME280;52177;55.968;37.498;2023-12-07T01:32:01;101657.00;;;-9.52;74.18
65546;BME280;52177;55.968;37.498;2023-12-07T01:32:31;101658.72;;;-9.51;74.00
65546;BME280;52177;55.968;37.498;2023-12-07T01:33:02;101657.84;;;-9.52;74.10
65546;BME280;52177;55.968;37.498;2023-12-07T01:33:32;101659.59;;;-9.52;73.98
65546;BME280;52177;55.968;37.498;2023-12-07T01:34:03;101656.13;;;-9.53;73.88
65546;BME280;52177;55.968;37.498;2023-12-07T01:34:33;101661.28;;;-9.53;74.01
65546;BME280;52177;55.968;37.498;2023-12-07T01:35:05;101660.44;;;-9.53;74.05
65546;BME280;52177;55.968;37.498;2023-12-07T01:35:35;101662.16;;;-9.54;73.96
65546;BME280;52177;55.968;37.498;2023-12-07T01:36:06;101663.88;;;-9.54;74.04
65546;BME280;52177;55.968;37.498;2023-12-07T01:36:37;101658.72;;;-9.54;74.16
65546;BME280;52177;55.968;37.498;2023-12-07T01:37:07;101663.88;;;-9.54;74.09
65546;BME280;52177;55.968;37.498;2023-12-07T01:37:38;101665.59;;;-9.55;74.20
65546;BME280;52177;55.968;37.498;2023-12-07T01:38:08;101654.41;;;-9.56;74.09
65546;BME280;52177;55.968;37.498;2023-12-07T01:38:38;101662.13;;;-9.56;73.87
65546;BME280;52177;55.968;37.498;2023-12-07T01:39:09;101661.28;;;-9.56;74.00
65546;BME280;52177;55.968;37.498;2023-12-07T01:39:42;101664.75;;;-9.57;73.93
65546;BME280;52177;55.968;37.498;2023-12-07T01:40:14;101667.31;;;-9.57;73.88
65546;BME280;52177;55.968;37.498;2023-12-07T01:40:45;101661.31;;;-9.59;73.86
65546;BME280;52177;55.968;37.498;2023-12-07T01:41:15;101668.19;;;-9.60;73.79
65546;BME280;52177;55.968;37.498;2023-12-07T01:41:46;101669.03;;;-9.61;73.98
65546;BME280;52177;55.968;37.498;2023-12-07T01:42:16;101670.75;;;-9.61;73.84
65546;BME280;52177;55.968;37.498;2023-12-07T01:42:53;101670.78;;;-9.60;73.89
65546;BME280;52177;55.968;37.498;2023-12-07T01:43:24;101662.16;;;-9.62;73.97
65546;BME280;52177;55.968;37.498;2023-12-07T01:43:54;101670.75;;;-9.63;73.87
65546;BME280;52177;55.968;37.498;2023-12-07T01:44:25;101671.63;;;-9.65;73.74
65546;BME280;52177;55.968;37.498;2023-12-07T01:44:57;101670.75;;;-9.66;73.83
65546;BME280;52177;55.968;37.498;2023-12-07T01:45:28;101669.03;;;-9.65;73.82
65546;BME280;52177;55.968;37.498;2023-12-07T01:45:59;101673.34;;;-9.67;73.72
65546;BME280;52177;55.968;37.498;2023-12-07T01:46:30;101675.06;;;-9.68;73.71
65546;BME280;52177;55.968;37.498;2023-12-07T01:47:01;101675.03;;;-9.69;73.88
65546;BME280;52177;55.968;37.498;2023-12-07T01:47:33;101675.94;;;-9.69;74.02
65546;BME280;52177;55.968;37.498;2023-12-07T01:48:06;101677.63;;;-9.69;73.89
65546;BME280;52177;55.968;37.498;2023-12-07T01:48:36;101678.50;;;-9.70;73.94
65546;BME280;52177;55.968;37.498;2023-12-07T01:49:07;101671.63;;;-9.70;74.10
65546;BME280;52177;55.968;37.498;2023-12-07T01:49:37;101676.78;;;-9.71;74.00
65546;BME280;52177;55.968;37.498;2023-12-07T01:50:10;101670.78;;;-9.73;74.19
65546;BME280;52177;55.968;37.498;2023-12-07T01:50:41;101675.94;;;-9.73;74.07
65546;BME280;52177;55.968;37.498;2023-12-07T01:51:11;101675.94;;;-9.73;74.04
65546;BME280;52177;55.968;37.498;2023-12-07T01:51:42;101673.34;;;-9.73;74.15
65546;BME280;52177;55.968;37.498;2023-12-07T01:52:12;101679.38;;;-9.73;74.07
65546;BME280;52177;55.968;37.498;2023-12-07T01:52:46;101673.31;;;-9.72;74.22
65546;BME280;52177;55.968;37.498;2023-12-07T01:53:18;101675.91;;;-9.72;74.27
65546;BME280;52177;55.968;37.498;2023-12-07T01:53:49;101677.66;;;-9.71;74.29
65546;BME280;52177;55.968;37.498;2023-12-07T01:54:20;101684.53;;;-9.71;74.04
65546;BME280;52177;55.968;37.498;2023-12-07T01:54:51;101675.91;;;-9.72;74.15
65546;BME280;52177;55.968;37.498;2023-12-07T01:55:22;101679.38;;;-9.71;74.14
65546;BME280;52177;55.968;37.498;2023-12-07T01:55:53;101671.63;;;-9.71;74.11
65546;BME280;52177;55.968;37.498;2023-12-07T01:56:25;101680.22;;;-9.71;74.19
65546;BME280;52177;55.968;37.498;2023-12-07T01:56:56;101679.34;;;-9.70;73.94
65546;BME280;52177;55.968;37.498;2023-12-07T01:57:27;101675.06;;;-9.71;74.08
65546;BME280;52177;55.968;37.498;2023-12-07T01:57:58;101675.03;;;-9.69;74.12
65546;BME280;52177;55.968;37.498;2023-12-07T01:58:28;101680.22;;;-9.69;74.03
65546;BME280;52177;55.968;37.498;2023-12-07T01:58:59;101683.66;;;-9.67;74.00
65546;BME280;52177;55.968;37.498;2023-12-07T01:59:29;101675.94;;;-9.69;74.18
65546;BME280;52177;55.968;37.498;2023-12-07T02:00:00;101681.94;;;-9.68;74.03
65546;BME280;52177;55.968;37.498;2023-12-07T02:00:30;101682.78;;;-9.69;73.86
65546;BME280;52177;55.968;37.498;2023-12-07T02:01:02;101683.66;;;-9.72;73.66
65546;BME280;52177;55.968;37.498;2023-12-07T02:01:32;101681.97;;;-9.71;73.93
65546;BME280;52177;55.968;37.498;2023-12-07T02:02:03;101677.63;;;-9.72;73.95
65546;BME280;52177;55.968;37.498;2023-12-07T02:02:33;101681.94;;;-9.73;74.09
65546;BME280;52177;55.968;37.498;2023-12-07T02:03:04;101679.38;;;-9.73;74.01
65546;BME280;52177;55.968;37.498;2023-12-07T02:03:35;101683.66;;;-9.72;74.17
65546;BME280;52177;55.968;37.498;2023-12-07T02:04:07;101687.97;;;-9.71;74.09
65546;BME280;52177;55.968;37.498;2023-12-07T02:04:37;101685.38;;;-9.72;73.99
65546;BME280;52177;55.968;37.498;2023-12-07T02:05:08;101678.50;;;-9.72;74.08
65546;BME280;52177;55.968;37.498;2023-12-07T02:05:42;101687.97;;;-9.72;73.99
65546;BME280;52177;55.968;37.498;2023-12-07T02:06:13;101687.09;;;-9.73;74.00
65546;BME280;52177;55.968;37.498;2023-12-07T02:06:44;101689.69;;;-9.73;73.97
65546;BME280;52177;55.968;37.498;2023-12-07T02:07:15;101692.25;;;-9.74;73.85
65546;BME280;52177;55.968;37.498;2023-12-07T02:07:46;101690.53;;;-9.75;73.93
65546;BME280;52177;55.968;37.498;2023-12-07T02:08:16;101689.69;;;-9.76;74.00
65546;BME280;52177;55.968;37.498;2023-12-07T02:08:47;101695.69;;;-9.79;73.93
65546;BME280;52177;55.968;37.498;2023-12-07T02:09:18;101685.38;;;-9.79;73.92
65546;BME280;52177;55.968;37.498;2023-12-07T02:09:49;101688.81;;;-9.78;74.01
65546;BME280;52177;55.968;37.498;2023-12-07T02:10:19;101687.09;;;-9.79;74.12
65546;BME280;52177;55.968;37.498;2023-12-07T02:10:50;101690.53;;;-9.79;74.05
65546;BME280;52177;55.968;37.498;2023-12-07T02:11:22;101690.53;;;-9.82;73.89
65546;BME280;52177;55.968;37.498;2023-12-07T02:11:53;101687.97;;;-9.85;73.76
65546;BME280;52177;55.968;37.498;2023-12-07T02:12:24;101698.28;;;-9.85;73.93
65546;BME280;52177;55.968;37.498;2023-12-07T02:12:55;101694.84;;;-9.85;73.98
65546;BME280;52177;55.968;37.498;2023-12-07T02:13:25;101696.53;;;-9.86;73.93
65546;BME280;52177;55.968;37.498;2023-12-07T02:13:56;101694.84;;;-9.87;74.13
65546;BME280;52177;55.968;37.498;2023-12-07T02:14:27;101692.25;;;-9.87;74.15
65546;BME280;52177;55.968;37.498;2023-12-07T02:14:59;101693.97;;;-9.87;74.07
65546;BME280;52177;55.968;37.498;2023-12-07T02:15:30;101689.66;;;-9.87;74.25
65546;BME280;52177;55.968;37.498;2023-12-07T02:16:06;101694.84;;;-9.87;74.34
65546;BME280;52177;55.968;37.498;2023-12-07T02:17:02;101692.25;;;-9.85;74.26
65546;BME280;52177;55.968;37.498;2023-12-07T02:17:41;101700.00;;;-9.85;74.29
65546;BME280;52177;55.968;37.498;2023-12-07T02:18:33;101695.69;;;-9.85;74.23
65546;BME280;52177;55.968;37.498;2023-12-07T02:20:46;101693.97;;;-9.81;74.15
65546;BME280;52177;55.968;37.498;2023-12-07T02:21:36;101699.97;;;-9.84;74.11
65546;BME280;52177;55.968;37.498;2023-12-07T02:22:25;101702.56;;;-9.84;74.07
65546;BME280;52177;55.968;37.498;2023-12-07T02:23:00;101707.72;;;-9.84;74.13
65546;BME280;52177;55.968;37.498;2023-12-07T02:23:32;101704.28;;;-9.86;74.07
65546;BME280;52177;55.968;37.498;2023-12-07T02:24:05;101702.56;;;-9.87;73.86
65546;BME280;52177;55.968;37.498;2023-12-07T02:24:37;101701.72;;;-9.92;73.62
65546;BME280;52177;55.968;37.498;2023-12-07T02:25:10;101711.19;;;-9.92;73.83
65546;BME280;52177;55.968;37.498;2023-12-07T02:26:06;101702.53;;;-9.98;74.02
65546;BME280;52177;55.968;37.498;2023-12-07T02:26:55;101701.69;;;-9.98;74.01
65546;BME280;52177;55.968;37.498;2023-12-07T02:27:42;101702.56;;;-9.99;73.99
65546;BME280;52177;55.968;37.498;2023-12-07T02:28:13;101701.69;;;-10.01;74.14
65546;BME280;52177;55.968;37.498;2023-12-07T02:28:43;101700.81;;;-10.00;74.10
65546;BME280;52177;55.968;37.498;2023-12-07T02:29:13;101704.28;;;-10.01;74.19
65546;BME280;52177;55.968;37.498;2023-12-07T02:29:44;101701.69;;;-10.01;73.96
65546;BME280;52177;55.968;37.498;2023-12-07T02:30:15;101705.97;;;-10.03;73.86
65546;BME280;52177;55.968;37.498;2023-12-07T02:30:46;101710.28;;;-10.05;74.00
65546;BME280;52177;55.968;37.498;2023-12-07T02:31:16;101700.81;;;-10.06;74.04
65546;BME280;52177;55.968;37.498;2023-12-07T02:31:47;101695.66;;;-10.06;74.25
65546;BME280;52177;55.968;37.498;2023-12-07T02:32:18;101695.66;;;-10.06;74.29
65546;BME280;52177;55.968;37.498;2023-12-07T02:32:48;101699.09;;;-10.06;74.36
65546;BME280;52177;55.968;37.498;2023-12-07T02:33:19;101694.78;;;-10.05;74.25
65546;BME280;52177;55.968;37.498;2023-12-07T02:33:49;101693.09;;;-10.03;74.39
65546;BME280;52177;55.968;37.498;2023-12-07T02:34:20;101692.22;;;-10.02;74.38
65546;BME280;52177;55.968;37.498;2023-12-07T02:34:51;101696.53;;;-10.01;74.27
65546;BME280;52177;55.968;37.498;2023-12-07T02:35:22;101697.38;;;-10.01;74.26
65546;BME280;52177;55.968;37.498;2023-12-07T02:35:52;101693.97;;;-10.00;74.24
65546;BME280;52177;55.968;37.498;2023-12-07T02:36:24;101702.53;;;-9.98;74.06
65546;BME280;52177;55.968;37.498;2023-12-07T02:36:58;101697.41;;;-9.99;74.00
65546;BME280;52177;55.968;37.498;2023-12-07T02:37:35;101695.66;;;-10.00;73.91
65546;BME280;52177;55.968;37.498;2023-12-07T02:38:08;101701.69;;;-10.03;74.01
65546;BME280;52177;55.968;37.498;2023-12-07T02:38:39;101698.25;;;-10.02;74.15
65546;BME280;52177;55.968;37.498;2023-12-07T02:39:10;101691.38;;;-10.01;74.15
65546;BME280;52177;55.968;37.498;2023-12-07T02:39:43;101699.13;;;-10.00;74.18
65546;BME280;52177;55.968;37.498;2023-12-07T02:40:17;101702.56;;;-9.99;74.15
65546;BME280;52177;55.968;37.498;2023-12-07T02:40:48;101691.38;;;-10.00;74.06
65546;BME280;52177;55.968;37.498;2023-12-07T02:41:20;101694.81;;;-9.99;73.99
65546;BME280;52177;55.968;37.498;2023-12-07T02:41:51;101699.97;;;-9.99;73.96
65546;BME280;52177;55.968;37.498;2023-12-07T02:42:25;101691.38;;;-9.98;73.99
65546;BME280;52177;55.968;37.498;2023-12-07T02:42:57;101697.38;;;-9.98;73.98
65546;BME280;52177;55.968;37.498;2023-12-07T02:43:29;101700.84;;;-9.97;74.14